createdAt,value
2019-02-12T00:00:22.809Z,8.90
2019-02-12T00:02:50.663Z,11.27
2019-02-12T00:05:17.252Z,6.30
2019-02-12T00:07:43.903Z,7.60
2019-02-12T00:10:10.460Z,6.13
2019-02-12T00:12:37.042Z,8.13
2019-02-12T00:15:05.491Z,9.97
2019-02-12T00:17:32.134Z,9.40
2019-02-12T00:19:58.717Z,6.33
2019-02-12T00:22:25.358Z,7.93
2019-02-12T00:24:51.936Z,7.63
2019-02-12T00:27:18.535Z,10.83
2019-02-12T00:29:45.246Z,7.50
2019-02-12T00:32:11.908Z,9.23
2019-02-12T00:34:38.566Z,9.00
2019-02-12T00:37:05.139Z,7.60
2019-02-12T00:39:31.710Z,9.80
2019-02-12T00:41:58.358Z,11.27
2019-02-12T00:44:24.974Z,9.90
2019-02-12T00:46:51.523Z,10.07
2019-02-12T00:49:18.064Z,8.30
2019-02-12T00:51:44.717Z,8.73
2019-02-12T00:54:11.321Z,7.40
2019-02-12T00:56:37.913Z,11.77
2019-02-12T00:59:04.466Z,9.33
2019-02-12T01:01:31.636Z,7.27
2019-02-12T01:03:58.270Z,9.17
2019-02-12T01:06:24.902Z,7.80
2019-02-12T01:08:51.582Z,7.50
2019-02-12T01:11:18.140Z,6.37
2019-02-12T01:13:44.765Z,7.07
2019-02-12T01:16:11.387Z,4.63
2019-02-12T01:18:39.172Z,6.47
2019-02-12T01:21:06.218Z,5.10
2019-02-12T01:23:36.471Z,5.33
2019-02-12T01:26:03.794Z,6.70
2019-02-12T01:28:31.175Z,4.60
2019-02-12T01:30:57.849Z,4.97
2019-02-12T01:33:24.462Z,5.90
2019-02-12T01:35:51.095Z,5.53
2019-02-12T01:38:17.649Z,4.73
2019-02-12T01:40:45.769Z,5.13
2019-02-12T01:43:12.703Z,5.37
2019-02-12T01:45:39.323Z,6.20
2019-02-12T01:48:06.337Z,4.90
2019-02-12T01:50:32.883Z,3.63
2019-02-12T01:52:59.443Z,3.90
2019-02-12T01:55:26.015Z,3.30
2019-02-12T01:57:52.711Z,3.60
2019-02-12T02:00:19.272Z,3.83
2019-02-12T02:02:45.879Z,3.20
2019-02-12T02:05:12.497Z,3.10
2019-02-12T02:07:39.070Z,3.37
2019-02-12T02:10:10.984Z,3.50
2019-02-12T02:12:37.607Z,3.93
2019-02-12T02:15:08.638Z,3.90
2019-02-12T02:17:36.423Z,4.20
2019-02-12T02:20:07.695Z,3.37
2019-02-12T02:22:34.293Z,4.00
2019-02-12T02:25:00.866Z,3.83
2019-02-12T02:27:27.492Z,3.50
2019-02-12T02:29:54.050Z,5.63
2019-02-12T02:32:20.656Z,4.27
2019-02-12T02:34:47.249Z,3.53
2019-02-12T02:37:13.936Z,4.20
2019-02-12T02:39:41.676Z,4.23
2019-02-12T02:42:11.194Z,4.00
2019-02-12T02:44:37.790Z,3.73
2019-02-12T02:47:04.769Z,2.90
2019-02-12T02:49:31.336Z,3.63
2019-02-12T02:51:57.936Z,2.13
2019-02-12T02:54:24.477Z,2.33
2019-02-12T02:56:51.064Z,2.40
2019-02-12T02:59:18.354Z,2.13
2019-02-12T03:01:44.953Z,1.50
2019-02-12T03:04:11.514Z,1.87
2019-02-12T03:06:38.088Z,1.90
2019-02-12T03:09:06.795Z,1.77
2019-02-12T03:11:37.221Z,1.70
2019-02-12T03:14:03.793Z,2.37
2019-02-12T03:16:30.389Z,1.90
2019-02-12T03:18:56.954Z,1.90
2019-02-12T03:21:23.651Z,2.13
2019-02-12T03:23:50.216Z,1.90
2019-02-12T03:26:16.878Z,1.93
2019-02-12T03:28:43.488Z,2.43
2019-02-12T03:31:10.042Z,2.73
2019-02-12T03:33:36.720Z,2.60
2019-02-12T03:36:03.373Z,2.50
2019-02-12T03:38:29.988Z,2.83
2019-02-12T03:40:56.619Z,1.90
2019-02-12T03:43:23.669Z,2.40
2019-02-12T03:45:50.207Z,1.87
2019-02-12T03:48:16.782Z,1.93
2019-02-12T03:50:43.338Z,3.80
2019-02-12T03:53:09.969Z,3.40
2019-02-12T03:55:36.534Z,4.67
2019-02-12T03:58:03.173Z,3.20
2019-02-12T04:00:29.808Z,7.53
2019-02-12T04:03:01.439Z,1.77
2019-02-12T04:05:28.100Z,4.60
2019-02-12T04:07:54.869Z,6.17
2019-02-12T04:10:21.492Z,2.67
2019-02-12T04:12:48.055Z,5.00
2019-02-12T04:15:16.383Z,2.93
2019-02-12T04:17:42.950Z,1.80
2019-02-12T04:20:09.598Z,3.53
2019-02-12T04:22:36.204Z,1.70
2019-02-12T04:25:03.356Z,1.57
2019-02-12T04:27:29.892Z,3.40
2019-02-12T04:29:56.532Z,4.90
2019-02-12T04:32:23.094Z,4.73
2019-02-12T04:34:49.754Z,3.30
2019-02-12T04:37:16.316Z,1.77
2019-02-12T04:39:42.888Z,4.20
2019-02-12T04:42:09.522Z,6.20
2019-02-12T04:44:36.132Z,3.20
2019-02-12T04:47:02.738Z,2.10
2019-02-12T04:49:29.291Z,2.10
2019-02-12T04:51:55.832Z,1.60
2019-02-12T04:54:22.466Z,2.47
2019-02-12T04:56:49.092Z,2.60
2019-02-12T04:59:15.708Z,2.60
2019-02-12T05:01:42.361Z,2.30
2019-02-12T05:04:08.931Z,2.10
2019-02-12T05:06:35.493Z,2.50
2019-02-12T05:09:07.768Z,3.50
2019-02-12T05:11:34.472Z,3.20
2019-02-12T05:14:01.068Z,3.27
2019-02-12T05:16:27.621Z,4.27
2019-02-12T05:18:55.926Z,4.87
2019-02-12T05:21:22.670Z,5.73
2019-02-12T05:23:49.276Z,4.63
2019-02-12T05:26:15.926Z,4.17
2019-02-12T05:28:42.615Z,7.67
2019-02-12T05:31:09.221Z,5.57
2019-02-12T05:33:35.829Z,4.70
2019-02-12T05:36:02.444Z,4.50
2019-02-12T05:38:29.038Z,4.97
2019-02-12T05:40:55.705Z,4.37
2019-02-12T05:43:22.299Z,2.10
2019-02-12T05:45:49.007Z,3.00
2019-02-12T05:48:15.614Z,1.77
2019-02-12T05:50:42.405Z,1.90
2019-02-12T05:53:09.103Z,1.97
2019-02-12T05:55:35.650Z,1.93
2019-02-12T05:58:02.266Z,2.37
2019-02-12T06:00:30.743Z,1.70
2019-02-12T06:02:57.323Z,2.67
2019-02-12T06:05:28.651Z,4.60
2019-02-12T06:07:58.036Z,2.93
2019-02-12T06:10:26.073Z,12.43
2019-02-12T06:12:52.761Z,1.80
2019-02-12T06:15:19.863Z,2.00
2019-02-12T06:17:46.442Z,3.00
2019-02-12T06:20:13.006Z,1.80
2019-02-12T06:22:39.659Z,3.40
2019-02-12T06:25:08.266Z,3.80
2019-02-12T06:27:34.735Z,3.70
2019-02-12T06:30:01.434Z,1.70
2019-02-12T06:32:27.986Z,7.00
2019-02-12T06:34:54.672Z,7.47
2019-02-12T06:37:21.277Z,7.10
2019-02-12T06:39:47.834Z,7.43
2019-02-12T06:42:14.470Z,4.57
2019-02-12T06:44:41.242Z,4.90
2019-02-12T06:47:07.978Z,8.70
2019-02-12T06:49:34.549Z,10.87
2019-02-12T06:52:01.127Z,10.03
2019-02-12T06:54:27.688Z,6.77
2019-02-12T06:56:54.361Z,3.33
2019-02-12T06:59:20.920Z,4.30
2019-02-12T07:01:47.617Z,3.73
2019-02-12T07:04:14.423Z,6.43
2019-02-12T07:06:46.850Z,9.07
2019-02-12T07:09:17.257Z,6.77
2019-02-12T07:11:49.736Z,5.70
2019-02-12T07:14:20.114Z,8.07
2019-02-12T07:16:52.512Z,8.70
2019-02-12T07:19:24.906Z,4.47
2019-02-12T07:21:57.331Z,4.50
2019-02-12T07:24:29.692Z,3.93
2019-02-12T07:27:02.086Z,4.30
2019-02-12T07:29:34.425Z,2.47
2019-02-12T07:32:04.949Z,4.23
2019-02-12T07:34:35.415Z,4.17
2019-02-12T07:37:05.923Z,3.60
2019-02-12T07:39:38.204Z,4.33
2019-02-12T07:42:08.708Z,3.97
2019-02-12T07:44:41.143Z,2.63
2019-02-12T07:47:13.485Z,6.43
2019-02-12T07:49:45.892Z,4.50
2019-02-12T07:52:18.202Z,6.63
2019-02-12T07:54:50.554Z,4.97
2019-02-12T07:57:23.006Z,3.80
2019-02-12T07:59:55.440Z,6.10
2019-02-12T08:02:27.789Z,4.67
2019-02-12T08:05:00.204Z,5.03
2019-02-12T08:07:32.760Z,3.77
2019-02-12T08:10:06.393Z,4.10
2019-02-12T08:12:38.738Z,3.37
2019-02-12T08:15:09.159Z,2.43
2019-02-12T08:17:41.587Z,2.43
2019-02-12T08:20:15.026Z,9.23
2019-02-12T08:22:47.521Z,4.47
2019-02-12T08:25:19.814Z,3.00
2019-02-12T08:27:52.214Z,2.47
2019-02-12T08:30:24.515Z,3.17
2019-02-12T08:32:57.048Z,2.80
2019-02-12T08:35:29.369Z,2.60
2019-02-12T08:37:59.934Z,2.60
2019-02-12T08:40:30.415Z,2.27
2019-02-12T08:43:02.739Z,2.53
2019-02-12T08:45:35.132Z,2.60
2019-02-12T08:48:05.646Z,3.17
2019-02-12T08:50:38.094Z,2.77
2019-02-12T08:53:10.504Z,2.30
2019-02-12T08:55:42.837Z,3.30
2019-02-12T08:58:15.165Z,2.87
2019-02-12T09:00:47.658Z,2.43
2019-02-12T09:03:20.097Z,2.30
2019-02-12T09:05:52.573Z,2.03
2019-02-12T09:08:24.945Z,2.30
2019-02-12T09:10:58.405Z,2.63
2019-02-12T09:13:31.695Z,3.50
2019-02-12T09:16:04.045Z,2.20
2019-02-12T09:18:34.487Z,3.20
2019-02-12T09:21:06.936Z,3.10
2019-02-12T09:23:37.390Z,3.07
2019-02-12T09:26:09.755Z,2.77
2019-02-12T09:28:42.100Z,3.30
2019-02-12T09:31:14.409Z,2.33
2019-02-12T09:33:45.133Z,2.90
2019-02-12T09:36:17.473Z,2.83
2019-02-12T09:38:48.001Z,2.60
2019-02-12T09:41:20.270Z,3.53
2019-02-12T09:43:52.629Z,2.80
2019-02-12T09:46:23.044Z,3.13
2019-02-12T09:48:55.497Z,1.80
2019-02-12T09:51:27.796Z,3.10
2019-02-12T09:54:08.426Z,2.50
2019-02-12T09:56:34.503Z,3.90
2019-02-12T09:59:06.848Z,2.10
2019-02-12T10:01:39.159Z,2.63
2019-02-12T10:04:09.693Z,2.60
2019-02-12T10:06:42.052Z,1.97
2019-02-12T10:09:14.497Z,2.90
2019-02-12T10:11:47.021Z,2.27
2019-02-12T10:14:19.506Z,1.80
2019-02-12T10:16:49.985Z,5.27
2019-02-12T10:19:22.329Z,3.80
2019-02-12T10:21:54.710Z,5.23
2019-02-12T10:24:27.174Z,2.90
2019-02-12T10:26:59.520Z,2.90
2019-02-12T10:29:31.930Z,3.33
2019-02-12T10:31:58.507Z,2.40
2019-02-12T10:34:25.074Z,2.67
2019-02-12T10:36:51.668Z,2.57
2019-02-12T10:39:18.682Z,2.53
2019-02-12T10:41:45.243Z,2.50
2019-02-12T10:44:11.779Z,2.90
2019-02-12T10:46:38.413Z,2.80
2019-02-12T10:49:04.993Z,3.00
2019-02-12T10:51:31.542Z,3.10
2019-02-12T10:53:58.164Z,2.70
2019-02-12T10:56:24.836Z,3.03
2019-02-12T10:58:51.532Z,3.30
2019-02-12T11:01:18.082Z,2.70
2019-02-12T11:04:41.097Z,2.87
2019-02-12T11:07:07.823Z,2.37
2019-02-12T11:09:34.437Z,2.90
2019-02-12T11:12:01.023Z,2.30
2019-02-12T11:14:27.634Z,1.97
2019-02-12T11:16:54.202Z,2.70
2019-02-12T11:19:20.804Z,4.10
2019-02-12T11:21:47.377Z,2.07
2019-02-12T11:24:14.070Z,2.77
2019-02-12T11:26:40.814Z,3.87
2019-02-12T11:29:07.409Z,26.40
2019-02-12T11:31:34.042Z,11.37
2019-02-12T11:34:00.652Z,38.43
2019-02-12T11:36:27.197Z,21.80
2019-02-12T11:38:53.855Z,30.80
2019-02-12T11:41:20.514Z,29.60
2019-02-12T11:43:47.099Z,30.17
2019-02-12T11:46:13.700Z,33.87
2019-02-12T11:48:40.356Z,13.47
2019-02-12T11:51:06.950Z,33.57
2019-02-12T11:53:33.654Z,33.13
2019-02-12T11:56:00.250Z,22.90
2019-02-12T11:58:26.796Z,15.57
2019-02-12T12:00:55.314Z,12.73
2019-02-12T12:03:21.917Z,6.07
2019-02-12T12:05:49.162Z,3.87
2019-02-12T12:08:15.823Z,3.17
2019-02-12T12:11:39.760Z,2.90
2019-02-12T12:14:06.439Z,3.07
2019-02-12T12:16:32.997Z,3.23
2019-02-12T12:18:59.584Z,2.70
2019-02-12T12:21:27.308Z,3.03
2019-02-12T12:23:53.870Z,2.97
2019-02-12T12:27:19.833Z,3.17
2019-02-12T12:29:46.499Z,3.33
2019-02-12T12:32:13.134Z,3.53
2019-02-12T12:34:39.762Z,3.10
2019-02-12T12:37:06.489Z,2.77
2019-02-12T12:39:33.062Z,3.57
2019-02-12T12:42:01.757Z,3.20
2019-02-12T12:44:28.570Z,3.07
2019-02-12T12:46:57.038Z,3.97
2019-02-12T12:49:23.647Z,3.63
2019-02-12T12:51:50.271Z,3.13
2019-02-12T12:54:16.843Z,3.87
2019-02-12T12:56:43.396Z,4.03
2019-02-12T12:59:10.048Z,4.10
2019-02-12T13:01:36.711Z,3.23
2019-02-12T13:04:03.286Z,4.27
2019-02-12T13:06:29.870Z,4.20
2019-02-12T13:08:56.517Z,4.57
2019-02-12T13:11:23.063Z,3.73
2019-02-12T13:13:50.742Z,4.63
2019-02-12T13:16:17.350Z,3.70
2019-02-12T13:18:43.922Z,3.90
2019-02-12T13:21:10.498Z,4.43
2019-02-12T13:23:37.117Z,5.47
2019-02-12T13:26:03.725Z,6.00
2019-02-12T13:28:30.380Z,5.07
2019-02-12T13:30:57.103Z,4.63
2019-02-12T13:33:23.736Z,6.17
2019-02-12T13:35:50.339Z,6.47
2019-02-12T13:38:16.888Z,4.90
2019-02-12T13:40:43.460Z,8.17
2019-02-12T13:43:10.253Z,12.17
2019-02-12T13:45:36.919Z,5.10
2019-02-12T13:48:03.537Z,9.13
2019-02-12T13:50:30.168Z,16.60
2019-02-12T13:52:56.700Z,16.37
2019-02-12T13:55:23.276Z,26.33
2019-02-12T13:57:49.894Z,15.37
2019-02-12T14:00:18.199Z,14.60
2019-02-12T14:02:44.880Z,24.57
2019-02-12T14:05:16.559Z,15.00
2019-02-12T14:07:43.275Z,14.73
2019-02-12T14:10:10.121Z,12.13
2019-02-12T14:12:36.674Z,15.03
2019-02-12T14:15:08.708Z,20.70
2019-02-12T14:17:35.301Z,10.90
2019-02-12T14:20:04.555Z,5.00
2019-02-12T14:22:31.216Z,18.47
2019-02-12T14:24:57.940Z,6.53
2019-02-12T14:27:25.498Z,4.73
2019-02-12T14:29:52.067Z,9.93
2019-02-12T14:32:18.670Z,6.33
2019-02-12T14:34:45.285Z,8.00
2019-02-12T14:37:11.833Z,12.47
2019-02-12T14:39:38.417Z,4.90
2019-02-12T14:42:05.045Z,8.93
2019-02-12T14:44:31.629Z,6.47
2019-02-12T14:46:58.226Z,4.37
2019-02-12T14:49:24.851Z,4.60
2019-02-12T14:51:51.432Z,3.77
2019-02-12T14:54:18.027Z,3.37
2019-02-12T14:56:45.058Z,6.73
2019-02-12T14:59:12.799Z,13.13
2019-02-12T15:01:39.395Z,2.73
2019-02-12T15:04:05.955Z,2.23
2019-02-12T15:06:32.597Z,2.73
2019-02-12T15:08:59.211Z,2.37
2019-02-12T15:11:25.839Z,7.83
2019-02-12T15:13:52.424Z,2.50
2019-02-12T15:16:18.988Z,2.43
2019-02-12T15:18:45.562Z,1.97
2019-02-12T15:21:12.191Z,1.40
2019-02-12T15:23:38.776Z,1.80
2019-02-12T15:26:05.304Z,2.20
2019-02-12T15:28:31.948Z,2.00
2019-02-12T15:30:58.517Z,2.10
2019-02-12T15:33:27.011Z,2.10
2019-02-12T15:35:53.578Z,3.30
2019-02-12T15:38:20.154Z,6.63
2019-02-12T15:40:46.982Z,3.30
2019-02-12T15:43:13.646Z,2.50
2019-02-12T15:45:40.319Z,1.63
2019-02-12T15:48:06.914Z,2.40
2019-02-12T15:50:33.490Z,2.30
2019-02-12T15:53:00.019Z,7.93
2019-02-12T15:55:26.611Z,2.60
2019-02-12T15:57:53.270Z,1.90
2019-02-12T16:00:20.711Z,2.57
2019-02-12T16:02:48.609Z,2.17
2019-02-12T16:05:15.285Z,2.13
2019-02-12T16:07:42.697Z,3.47
2019-02-12T16:10:17.074Z,3.03
2019-02-12T16:12:44.162Z,2.67
2019-02-12T16:15:13.654Z,3.00
2019-02-12T16:17:40.246Z,2.47
2019-02-12T16:20:07.570Z,2.80
2019-02-12T16:22:34.256Z,4.57
2019-02-12T16:25:01.200Z,8.43
2019-02-12T16:27:27.939Z,3.20
2019-02-12T16:29:54.489Z,4.47
2019-02-12T16:32:21.086Z,3.23
2019-02-12T16:34:47.690Z,2.97
2019-02-12T16:37:14.341Z,4.10
2019-02-12T16:39:41.075Z,3.77
2019-02-12T16:42:07.766Z,4.10
2019-02-12T16:44:34.590Z,3.67
2019-02-12T16:47:01.387Z,2.97
2019-02-12T16:49:28.081Z,3.03
2019-02-12T16:51:56.560Z,4.17
2019-02-12T16:54:23.131Z,9.13
2019-02-12T16:56:49.737Z,2.17
2019-02-12T16:59:16.353Z,4.20
2019-02-12T17:01:42.977Z,3.90
2019-02-12T17:04:09.728Z,3.10
2019-02-12T17:06:36.341Z,2.80
2019-02-12T17:09:04.138Z,3.83
2019-02-12T17:11:31.728Z,3.53
2019-02-12T17:16:45.778Z,3.10
2019-02-12T17:19:12.553Z,8.17
2019-02-12T17:21:39.121Z,4.67
2019-02-12T17:24:06.008Z,12.20
2019-02-12T17:26:32.577Z,7.70
2019-02-12T17:28:59.238Z,17.67
2019-02-12T17:31:25.921Z,7.03
2019-02-12T17:33:53.648Z,6.90
2019-02-12T17:36:20.466Z,5.00
2019-02-12T17:38:47.165Z,7.17
2019-02-12T17:41:13.717Z,5.67
2019-02-12T17:43:40.507Z,3.43
2019-02-12T17:46:07.108Z,4.43
2019-02-12T17:48:33.701Z,5.43
2019-02-12T17:51:00.253Z,5.27
2019-02-12T17:53:26.926Z,6.30
2019-02-12T17:55:53.560Z,8.60
2019-02-12T17:58:20.218Z,6.10
2019-02-12T18:00:46.826Z,7.00
2019-02-12T18:03:13.463Z,5.20
2019-02-12T18:05:40.099Z,9.07
2019-02-12T18:08:06.760Z,14.00
2019-02-12T18:10:33.390Z,7.10
2019-02-12T18:12:59.909Z,12.80
2019-02-12T18:15:26.607Z,4.83
2019-02-12T18:17:53.354Z,5.53
2019-02-12T18:20:26.354Z,7.50
2019-02-12T18:22:48.957Z,7.90
2019-02-12T18:25:15.542Z,8.53
2019-02-12T18:27:42.418Z,7.17
2019-02-12T18:30:14.547Z,6.53
2019-02-12T18:32:41.312Z,8.40
2019-02-12T18:35:08.358Z,6.30
2019-02-12T18:37:35.132Z,13.43
2019-02-12T18:40:05.719Z,7.00
2019-02-12T18:42:32.327Z,12.73
2019-02-12T18:44:58.923Z,14.43
2019-02-12T18:47:29.460Z,12.40
2019-02-12T18:49:56.527Z,7.53
2019-02-12T18:52:23.102Z,8.23
2019-02-12T18:54:49.906Z,6.77
2019-02-12T18:57:16.511Z,5.00
2019-02-12T18:59:43.305Z,6.83
2019-02-12T19:02:10.715Z,8.50
2019-02-12T19:04:37.473Z,9.77
2019-02-12T19:07:04.073Z,7.70
2019-02-12T19:09:33.492Z,8.03
2019-02-12T19:12:00.065Z,13.73
2019-02-12T19:14:26.689Z,14.70
2019-02-12T19:16:53.396Z,12.10
2019-02-12T19:19:19.980Z,8.40
2019-02-12T19:21:46.622Z,9.33
2019-02-12T19:25:09.645Z,19.87
2019-02-12T19:27:36.323Z,28.90
2019-02-12T19:30:08.735Z,12.70
2019-02-12T19:32:35.359Z,6.40
2019-02-12T19:35:05.337Z,13.30
2019-02-12T19:37:31.941Z,14.93
2019-02-12T19:39:58.587Z,12.90
2019-02-12T19:42:25.187Z,14.60
2019-02-12T19:44:51.794Z,9.60
2019-02-12T19:47:18.662Z,12.80
2019-02-12T19:49:45.337Z,7.57
2019-02-12T19:52:12.081Z,8.93
2019-02-12T19:54:38.661Z,10.80
2019-02-12T19:57:05.197Z,10.10
2019-02-12T19:59:32.918Z,26.60
2019-02-12T20:01:59.586Z,17.13
2019-02-12T20:04:26.199Z,16.27
2019-02-12T20:06:52.855Z,18.63
2019-02-12T20:09:20.033Z,16.90
2019-02-12T20:11:46.615Z,14.73
2019-02-12T20:14:13.286Z,20.73
2019-02-12T20:16:40.070Z,22.53
2019-02-12T20:19:06.853Z,22.07
2019-02-12T20:21:33.529Z,21.73
2019-02-12T20:24:00.638Z,21.67
2019-02-12T20:26:27.406Z,19.07
2019-02-12T20:28:53.958Z,23.10
2019-02-12T20:31:20.522Z,18.17
2019-02-12T20:33:47.255Z,17.67
2019-02-12T20:36:14.127Z,19.43
2019-02-12T20:38:40.851Z,15.60
2019-02-12T20:41:07.873Z,29.60
2019-02-12T20:43:34.552Z,26.30
2019-02-12T20:46:02.865Z,16.60
2019-02-12T20:48:30.508Z,27.20
2019-02-12T20:51:11.709Z,17.23
2019-02-12T20:53:38.574Z,14.80
2019-02-12T20:56:05.569Z,20.53
2019-02-12T20:58:32.194Z,37.83
2019-02-12T21:00:58.784Z,17.20
2019-02-12T21:03:25.582Z,29.33
2019-02-12T21:05:55.249Z,20.97
2019-02-12T21:08:22.359Z,21.00
2019-02-12T21:10:48.975Z,36.80
2019-02-12T21:13:20.919Z,47.40
2019-02-12T21:15:57.322Z,54.17
2019-02-12T21:18:24.100Z,57.00
2019-02-12T21:20:51.208Z,21.17
2019-02-12T21:23:17.768Z,43.03
2019-02-12T21:25:44.397Z,20.47
2019-02-12T21:28:11.228Z,43.00
2019-02-12T21:30:42.197Z,49.90
2019-02-12T21:33:08.861Z,22.67
2019-02-12T21:35:41.987Z,22.73
2019-02-12T21:38:10.987Z,13.97
2019-02-12T21:40:37.569Z,21.93
2019-02-12T21:43:04.546Z,66.27
2019-02-12T21:45:33.144Z,21.20
2019-02-12T21:47:59.916Z,13.00
2019-02-12T21:50:26.594Z,24.63
2019-02-12T21:52:53.246Z,37.27
2019-02-12T21:55:21.039Z,22.73
2019-02-12T21:57:47.779Z,18.47
2019-02-12T22:00:16.534Z,27.90
2019-02-12T22:02:43.380Z,16.70
2019-02-12T22:05:13.045Z,25.73
2019-02-12T22:07:39.741Z,28.20
2019-02-12T22:10:12.185Z,50.87
2019-02-12T22:12:38.973Z,25.40
2019-02-12T22:15:10.175Z,43.37
2019-02-12T22:17:38.582Z,42.20
2019-02-12T22:20:09.879Z,22.87
2019-02-12T22:22:36.495Z,44.83
2019-02-12T22:25:05.966Z,24.83
2019-02-12T22:27:40.074Z,25.03
2019-02-12T22:30:01.124Z,33.60
2019-02-12T22:32:27.727Z,45.50
2019-02-12T22:34:54.279Z,22.57
2019-02-12T22:37:20.877Z,18.97
2019-02-12T22:39:47.622Z,16.47
2019-02-12T22:42:14.189Z,36.17
2019-02-12T22:44:40.781Z,15.50
2019-02-12T22:47:07.442Z,17.23
2019-02-12T22:49:34.240Z,9.40
2019-02-12T22:52:00.986Z,8.97
2019-02-12T22:54:27.592Z,9.07
2019-02-12T22:56:54.165Z,11.27
2019-02-12T22:59:20.755Z,12.57
2019-02-12T23:01:47.382Z,12.23
2019-02-12T23:04:13.994Z,15.40
2019-02-12T23:06:40.635Z,24.37
2019-02-12T23:09:09.177Z,18.53
2019-02-12T23:11:35.854Z,27.03
2019-02-12T23:14:02.450Z,19.70
2019-02-12T23:16:29.125Z,16.87
2019-02-12T23:18:55.730Z,17.50
2019-02-12T23:21:22.408Z,23.93
2019-02-12T23:23:48.972Z,15.27
2019-02-12T23:26:15.525Z,22.07
2019-02-12T23:28:42.367Z,15.30
2019-02-12T23:31:08.963Z,23.17
2019-02-12T23:33:35.548Z,21.37
2019-02-12T23:36:02.526Z,21.13
2019-02-12T23:38:29.036Z,18.40
2019-02-12T23:40:56.103Z,20.20
2019-02-12T23:43:22.693Z,15.50
2019-02-12T23:45:49.268Z,14.70
2019-02-12T23:48:15.901Z,14.47
2019-02-12T23:50:42.606Z,13.70
2019-02-12T23:53:09.253Z,16.93
2019-02-12T23:55:35.876Z,14.47
2019-02-12T23:58:05.951Z,15.90
